createdAt,value
2023-04-03T00:00:38.143Z,101028.75
2023-04-03T00:05:39.702Z,101031.38
2023-04-03T00:10:41.228Z,101033.66
2023-04-03T00:15:43.182Z,101027.72
2023-04-03T00:20:45.098Z,101033.63
2023-04-03T00:25:46.540Z,101036.81
2023-04-03T00:30:50.026Z,101030.22
2023-04-03T00:35:52.013Z,101040.97
2023-04-03T00:40:53.568Z,101040.88
2023-04-03T00:45:59.559Z,101037.66
2023-04-03T00:51:02.148Z,101039.38
2023-04-03T00:56:08.401Z,101039.13
2023-04-03T01:01:16.339Z,101034.47
2023-04-03T01:06:22.233Z,101036.91
2023-04-03T01:11:23.698Z,101051.53
2023-04-03T01:16:25.312Z,101061.91
2023-04-03T01:21:43.598Z,101056.66
2023-04-03T01:26:45.642Z,101058.50
2023-04-03T01:31:51.875Z,101066.91
2023-04-03T01:36:53.901Z,101064.00
2023-04-03T01:41:55.431Z,101072.66
2023-04-03T01:46:56.948Z,101070.38
2023-04-03T01:51:58.438Z,101083.31
2023-04-03T01:56:59.906Z,101081.09
2023-04-03T02:02:01.391Z,101072.88
2023-04-03T02:07:02.870Z,101082.00
2023-04-03T02:12:04.419Z,101082.47
2023-04-03T02:17:09.550Z,101084.97
2023-04-03T02:22:11.334Z,101083.31
2023-04-03T02:27:13.170Z,101070.28
2023-04-03T02:32:14.587Z,101081.47
2023-04-03T02:37:16.436Z,101091.13
2023-04-03T02:42:18.007Z,101094.53
2023-04-03T02:47:19.798Z,101092.78
2023-04-03T02:52:21.534Z,101094.78
2023-04-03T02:57:23.589Z,101094.69
2023-04-03T03:02:25.247Z,101101.06
2023-04-03T03:07:26.981Z,101102.91
2023-04-03T03:12:28.475Z,101089.72
2023-04-03T03:17:29.976Z,101092.41
2023-04-03T03:22:31.880Z,101104.22
2023-04-03T03:27:34.271Z,101112.78
2023-04-03T03:32:35.915Z,101118.28
2023-04-03T03:37:37.460Z,101115.13
2023-04-03T03:42:38.874Z,101120.56
2023-04-03T03:47:41.026Z,101123.78
2023-04-03T03:52:42.479Z,101122.31
2023-04-03T03:57:44.371Z,101124.75
2023-04-03T04:02:45.921Z,101133.81
2023-04-03T04:07:47.380Z,101132.59
2023-04-03T04:12:50.172Z,101134.34
2023-04-03T04:17:51.850Z,101132.94
2023-04-03T04:22:53.479Z,101139.34
2023-04-03T04:27:54.915Z,101154.41
2023-04-03T04:32:56.506Z,101157.22
2023-04-03T04:37:58.049Z,101156.88
2023-04-03T04:42:59.478Z,101167.69
2023-04-03T04:48:01.024Z,101180.41
2023-04-03T04:53:02.543Z,101184.59
2023-04-03T04:58:03.959Z,101176.25
2023-04-03T05:03:05.499Z,101181.41
2023-04-03T05:08:07.480Z,101186.50
2023-04-03T05:13:08.990Z,101178.38
2023-04-03T05:18:10.454Z,101191.50
2023-04-03T05:23:12.423Z,101196.59
2023-04-03T05:28:14.087Z,101202.28
2023-04-03T05:33:15.636Z,101199.59
2023-04-03T05:38:17.482Z,101203.06
2023-04-03T05:43:19.032Z,101206.25
2023-04-03T05:48:20.458Z,101220.09
2023-04-03T05:53:25.947Z,101213.03
2023-04-03T05:58:27.355Z,101214.53
2023-04-03T06:03:28.974Z,101223.19
2023-04-03T06:08:30.609Z,101222.31
2023-04-03T06:13:32.447Z,101224.66
2023-04-03T06:18:33.879Z,101225.16
2023-04-03T06:23:35.660Z,101225.25
2023-04-03T06:28:37.092Z,101241.44
2023-04-03T06:33:38.540Z,101230.88
2023-04-03T06:38:40.537Z,101228.72
2023-04-03T06:43:41.934Z,101244.81
2023-04-03T06:48:44.323Z,101244.19
2023-04-03T06:53:46.733Z,101257.88
2023-04-03T06:58:48.210Z,101258.44
2023-04-03T07:03:50.195Z,101275.16
2023-04-03T07:08:52.264Z,101277.44
2023-04-03T07:13:54.254Z,101278.78
2023-04-03T07:18:56.005Z,101274.38
2023-04-03T07:23:57.479Z,101271.78
2023-04-03T07:28:58.910Z,101281.31
2023-04-03T07:34:00.365Z,101291.63
2023-04-03T07:39:02.076Z,101298.78
2023-04-03T07:44:03.757Z,101286.56
2023-04-03T07:49:05.455Z,101291.69
2023-04-03T07:54:07.049Z,101278.09
2023-04-03T07:59:08.808Z,101292.13
2023-04-03T08:04:10.286Z,101288.97
2023-04-03T08:09:11.751Z,101290.47
2023-04-03T08:14:17.678Z,101288.00
2023-04-03T08:19:26.214Z,101295.81
2023-04-03T08:24:28.400Z,101292.41
2023-04-03T08:29:29.898Z,101290.63
2023-04-03T08:34:31.988Z,101285.75
2023-04-03T08:39:33.570Z,101280.72
2023-04-03T08:44:38.033Z,101280.88
2023-04-03T08:49:48.698Z,101278.06
2023-04-03T08:55:02.262Z,101287.72
2023-04-03T09:00:15.438Z,101283.22
2023-04-03T09:05:20.852Z,101276.06
2023-04-03T09:10:28.157Z,101281.03
2023-04-03T09:15:38.265Z,101289.25
2023-04-03T09:20:47.415Z,101282.59
2023-04-03T09:25:50.850Z,101288.31
2023-04-03T09:30:52.270Z,101288.41
2023-04-03T09:35:53.761Z,101296.69
2023-04-03T09:41:17.035Z,101294.34
2023-04-03T09:46:29.642Z,101296.44
2023-04-03T09:51:32.158Z,101301.47
2023-04-03T09:56:35.566Z,101307.63
2023-04-03T10:01:39.812Z,101292.47
2023-04-03T10:06:44.490Z,101298.25
2023-04-03T10:12:02.497Z,101283.28
2023-04-03T10:17:19.254Z,101277.03
2023-04-03T10:23:00.197Z,101291.22
2023-04-03T10:28:04.588Z,101284.44
2023-04-03T10:33:21.971Z,101280.88
2023-04-03T10:38:42.206Z,101276.38
2023-04-03T10:43:55.075Z,101275.47
2023-04-03T10:49:16.747Z,101284.34
2023-04-03T10:54:40.080Z,101276.97
2023-04-03T10:59:50.388Z,101275.00
2023-04-03T11:04:58.264Z,101280.72
2023-04-03T11:10:38.227Z,101267.63
2023-04-03T11:15:40.058Z,101266.97
2023-04-03T11:20:58.171Z,101267.84
2023-04-03T11:26:08.727Z,101277.25
2023-04-03T11:31:38.171Z,101264.97
2023-04-03T11:36:46.789Z,101263.16
2023-04-03T11:41:48.664Z,101269.53
2023-04-03T11:46:58.785Z,101260.28
2023-04-03T11:52:00.292Z,101251.16
2023-04-03T11:57:44.941Z,101257.97
2023-04-03T12:02:54.322Z,101258.19
2023-04-03T12:08:30.546Z,101249.03
2023-04-03T12:13:32.004Z,101238.97
2023-04-03T12:18:57.692Z,101231.47
2023-04-03T12:24:10.222Z,101239.38
2023-04-03T12:29:47.654Z,101237.19
2023-04-03T12:34:51.761Z,101229.75
2023-04-03T12:40:26.785Z,101229.03
2023-04-03T12:45:28.796Z,101220.25
2023-04-03T12:50:33.927Z,101226.50
2023-04-03T12:55:35.819Z,101232.88
2023-04-03T13:00:39.973Z,101228.16
2023-04-03T13:05:46.327Z,101208.84
2023-04-03T13:11:12.570Z,101229.63
2023-04-03T13:16:18.153Z,101238.84
2023-04-03T13:21:24.689Z,101224.75
2023-04-03T13:26:29.913Z,101222.84
2023-04-03T13:31:37.619Z,101224.56
2023-04-03T13:36:46.783Z,101230.97
2023-04-03T13:41:51.650Z,101226.38
2023-04-03T13:46:54.460Z,101223.44
2023-04-03T13:52:06.747Z,101227.72
2023-04-03T13:57:15.524Z,101233.09
2023-04-03T14:02:35.036Z,101222.22
2023-04-03T14:07:36.641Z,101221.19
2023-04-03T14:12:42.405Z,101220.28
2023-04-03T14:17:43.991Z,101217.59
2023-04-03T14:22:45.524Z,101220.25
2023-04-03T14:27:50.630Z,101213.44
2023-04-03T14:32:52.436Z,101221.72
2023-04-03T14:37:56.561Z,101212.56
2023-04-03T14:42:59.242Z,101206.03
2023-04-03T14:48:00.995Z,101207.47
2023-04-03T14:53:02.730Z,101209.94
2023-04-03T14:58:04.238Z,101220.59
2023-04-03T15:03:06.119Z,101214.75
2023-04-03T15:08:18.108Z,101218.25
2023-04-03T15:13:20.555Z,101218.38
2023-04-03T15:18:29.004Z,101222.28
2023-04-03T15:23:32.233Z,101216.09
2023-04-03T15:28:36.422Z,101210.31
2023-04-03T15:33:38.076Z,101214.72
2023-04-03T15:38:39.544Z,101224.28
2023-04-03T15:43:41.044Z,101224.16
2023-04-03T15:48:42.573Z,101229.63
2023-04-03T15:53:44.299Z,101236.69
2023-04-03T15:58:45.781Z,101225.59
2023-04-03T16:03:47.967Z,101242.06
2023-04-03T16:08:50.365Z,101228.34
2023-04-03T16:13:51.841Z,101241.78
2023-04-03T16:18:55.478Z,101245.91
2023-04-03T16:23:59.353Z,101239.81
2023-04-03T16:29:00.855Z,101256.13
2023-04-03T16:34:02.622Z,101261.25
2023-04-03T16:39:04.438Z,101260.75
2023-04-03T16:44:08.076Z,101262.84
2023-04-03T16:49:09.604Z,101265.97
2023-04-03T16:54:12.606Z,101268.94
2023-04-03T16:59:14.135Z,101279.66
2023-04-03T17:04:15.926Z,101269.53
2023-04-03T17:09:17.463Z,101276.84
2023-04-03T17:14:18.929Z,101272.72
2023-04-03T17:19:20.532Z,101279.66
2023-04-03T17:24:22.090Z,101277.28
2023-04-03T17:29:23.555Z,101284.00
2023-04-03T17:34:25.058Z,101288.03
2023-04-03T17:39:26.614Z,101284.25
2023-04-03T17:44:28.061Z,101286.84
2023-04-03T17:49:29.490Z,101300.03
2023-04-03T17:54:30.938Z,101291.28
2023-04-03T17:59:32.870Z,101298.72
2023-04-03T18:04:34.376Z,101291.88
2023-04-03T18:09:37.490Z,101289.31
2023-04-03T18:14:40.222Z,101284.59
2023-04-03T18:19:41.930Z,101290.00
2023-04-03T18:24:44.086Z,101290.06
2023-04-03T18:29:50.408Z,101298.38
2023-04-03T18:34:51.991Z,101298.63
2023-04-03T18:39:53.727Z,101295.94
2023-04-03T18:44:59.217Z,101293.38
2023-04-03T18:50:00.823Z,101297.69
2023-04-03T18:55:02.426Z,101297.91
2023-04-03T19:00:05.146Z,101291.28
2023-04-03T19:05:08.589Z,101293.16
2023-04-03T19:10:17.105Z,101286.53
2023-04-03T19:15:21.100Z,101283.16
2023-04-03T19:20:22.731Z,101295.91
2023-04-03T19:25:24.307Z,101290.19
2023-04-03T19:30:25.819Z,101293.25
2023-04-03T19:35:27.634Z,101295.81
2023-04-03T19:40:29.690Z,101297.34
2023-04-03T19:45:31.941Z,101296.66
2023-04-03T19:50:34.214Z,101300.72
2023-04-03T19:55:36.294Z,101297.22
2023-04-03T20:00:37.904Z,101296.06
2023-04-03T20:05:39.397Z,101292.88
2023-04-03T20:10:41.142Z,101303.75
2023-04-03T20:15:43.862Z,101301.84
2023-04-03T20:20:53.915Z,101296.38
2023-04-03T20:26:06.590Z,101294.44
2023-04-03T20:31:13.680Z,101303.91
2023-04-03T20:36:16.854Z,101304.78
2023-04-03T20:41:18.808Z,101309.44
2023-04-03T20:46:20.920Z,101300.88
2023-04-03T20:51:22.624Z,101292.56
2023-04-03T20:56:24.323Z,101300.75
2023-04-03T21:01:27.098Z,101310.09
2023-04-03T21:07:05.896Z,101307.78
2023-04-03T21:12:44.726Z,101318.53
2023-04-03T21:18:10.695Z,101311.34
2023-04-03T21:23:12.910Z,101309.03
2023-04-03T21:28:14.637Z,101310.69
2023-04-03T21:33:16.109Z,101308.03
2023-04-03T21:38:18.052Z,101313.25
2023-04-03T21:43:19.621Z,101316.06
2023-04-03T21:48:21.672Z,101312.66
2023-04-03T21:53:23.705Z,101318.28
2023-04-03T21:58:32.107Z,101317.25
2023-04-03T22:03:34.920Z,101321.47
2023-04-03T22:08:36.750Z,101313.22
2023-04-03T22:13:38.996Z,101314.09
2023-04-03T22:18:40.549Z,101319.25
2023-04-03T22:23:42.154Z,101320.97
2023-04-03T22:28:46.396Z,101325.31
2023-04-03T22:33:47.818Z,101322.00
2023-04-03T22:38:49.335Z,101324.94
2023-04-03T22:43:50.737Z,101332.13
2023-04-03T22:48:52.263Z,101334.66
2023-04-03T22:53:53.724Z,101334.81
2023-04-03T22:58:56.718Z,101340.56
2023-04-03T23:03:58.168Z,101336.19
2023-04-03T23:08:59.598Z,101331.66
2023-04-03T23:14:02.978Z,101328.41
2023-04-03T23:19:04.543Z,101325.41
2023-04-03T23:24:06.102Z,101326.81
2023-04-03T23:29:07.898Z,101328.09
2023-04-03T23:34:09.330Z,101314.44
2023-04-03T23:39:10.735Z,101318.22
2023-04-03T23:44:12.143Z,101318.41
2023-04-03T23:49:13.618Z,101311.75
2023-04-03T23:54:15.407Z,101303.59
2023-04-03T23:59:16.877Z,101298.78
